createdAt,value
2018-02-19T00:00:49.325Z,4.60
2018-02-19T00:02:42.703Z,4.48
2018-02-19T00:03:42.657Z,4.60
2018-02-19T00:05:35.969Z,4.63
2018-02-19T00:06:35.990Z,4.45
2018-02-19T00:08:29.244Z,4.45
2018-02-19T00:09:29.236Z,4.49
2018-02-19T00:11:22.565Z,4.58
2018-02-19T00:12:22.510Z,4.44
2018-02-19T00:14:17.827Z,4.52
2018-02-19T00:15:17.844Z,4.48
2018-02-19T00:17:11.188Z,4.82
2018-02-19T00:18:11.197Z,4.78
2018-02-19T00:20:04.443Z,4.80
2018-02-19T00:21:04.442Z,4.68
2018-02-19T00:22:57.768Z,4.49
2018-02-19T00:23:57.740Z,4.48
2018-02-19T00:25:51.060Z,4.40
2018-02-19T00:26:51.036Z,4.45
2018-02-19T00:28:44.406Z,4.42
2018-02-19T00:29:44.342Z,4.56
2018-02-19T00:31:37.652Z,4.48
2018-02-19T00:32:37.646Z,4.55
2018-02-19T00:34:31.024Z,4.44
2018-02-19T00:35:30.936Z,4.48
2018-02-19T00:37:24.333Z,4.58
2018-02-19T00:38:24.268Z,4.55
2018-02-19T00:40:17.662Z,4.40
2018-02-19T00:41:17.589Z,4.44
2018-02-19T00:43:10.921Z,4.48
2018-02-19T00:44:10.876Z,4.49
2018-02-19T00:46:04.213Z,4.71
2018-02-19T00:47:04.191Z,4.71
2018-02-19T00:48:57.540Z,4.67
2018-02-19T00:49:57.513Z,4.56
2018-02-19T00:51:50.834Z,4.52
2018-02-19T00:52:50.823Z,4.52
2018-02-19T00:54:44.138Z,4.49
2018-02-19T00:55:44.090Z,4.35
2018-02-19T00:57:37.442Z,4.34
2018-02-19T00:58:37.383Z,4.38
2018-02-19T01:00:30.713Z,4.48
2018-02-19T01:01:30.680Z,4.44
2018-02-19T01:03:24.034Z,4.56
2018-02-19T01:04:24.010Z,4.49
2018-02-19T01:06:17.282Z,4.53
2018-02-19T01:07:17.295Z,4.60
2018-02-19T01:09:10.688Z,4.67
2018-02-19T01:10:10.614Z,4.56
2018-02-19T01:12:03.940Z,4.70
2018-02-19T01:13:03.893Z,4.56
2018-02-19T01:14:57.242Z,4.66
2018-02-19T01:15:57.170Z,4.60
2018-02-19T01:17:50.545Z,4.58
2018-02-19T01:18:50.466Z,4.53
2018-02-19T01:20:43.793Z,4.58
2018-02-19T01:21:43.782Z,4.62
2018-02-19T01:23:37.114Z,4.66
2018-02-19T01:24:37.147Z,4.62
2018-02-19T01:26:30.484Z,4.62
2018-02-19T01:27:30.477Z,4.68
2018-02-19T01:29:23.733Z,4.56
2018-02-19T01:30:23.719Z,4.58
2018-02-19T01:32:17.061Z,4.82
2018-02-19T01:33:17.030Z,4.66
2018-02-19T01:35:10.348Z,4.66
2018-02-19T01:36:10.309Z,4.62
2018-02-19T01:38:03.688Z,4.55
2018-02-19T01:39:03.623Z,4.60
2018-02-19T01:40:57.950Z,4.80
2018-02-19T01:41:57.972Z,4.84
2018-02-19T01:43:50.779Z,4.82
2018-02-19T01:44:50.726Z,4.75
2018-02-19T01:46:44.130Z,4.82
2018-02-19T01:47:44.075Z,4.89
2018-02-19T01:49:37.397Z,5.00
2018-02-19T01:50:37.375Z,5.08
2018-02-19T01:52:30.652Z,4.93
2018-02-19T01:53:30.674Z,5.23
2018-02-19T01:55:23.971Z,5.05
2018-02-19T01:56:23.985Z,4.94
2018-02-19T01:58:17.256Z,4.93
2018-02-19T01:59:17.290Z,4.86
2018-02-19T02:01:10.612Z,4.80
2018-02-19T02:02:10.590Z,4.70
2018-02-19T02:04:03.918Z,4.73
2018-02-19T02:05:03.885Z,4.78
2018-02-19T02:06:57.211Z,4.89
2018-02-19T02:07:57.154Z,4.86
2018-02-19T02:09:50.476Z,4.80
2018-02-19T02:10:50.466Z,4.73
2018-02-19T02:12:44.008Z,4.75
2018-02-19T02:13:43.834Z,4.68
2018-02-19T02:15:37.098Z,4.73
2018-02-19T02:16:37.100Z,4.67
2018-02-19T02:18:30.630Z,4.67
2018-02-19T02:19:30.371Z,4.59
2018-02-19T02:21:23.678Z,4.75
2018-02-19T02:22:23.665Z,4.63
2018-02-19T02:24:17.008Z,4.63
2018-02-19T02:25:17.010Z,4.74
2018-02-19T02:27:10.351Z,4.80
2018-02-19T02:28:10.286Z,4.75
2018-02-19T02:30:03.623Z,4.74
2018-02-19T02:31:03.574Z,4.68
2018-02-19T02:32:56.938Z,4.48
2018-02-19T02:33:56.864Z,4.58
2018-02-19T02:35:50.268Z,4.73
2018-02-19T02:36:50.205Z,4.55
2018-02-19T02:38:44.518Z,4.75
2018-02-19T02:39:44.500Z,4.78
2018-02-19T02:41:37.841Z,4.78
2018-02-19T02:42:37.786Z,4.80
2018-02-19T02:44:31.099Z,4.96
2018-02-19T02:45:31.124Z,4.89
2018-02-19T02:47:24.424Z,4.89
2018-02-19T02:48:24.389Z,4.97
2018-02-19T02:50:17.843Z,4.89
2018-02-19T02:51:17.715Z,4.87
2018-02-19T02:53:11.025Z,4.80
2018-02-19T02:54:10.976Z,4.92
2018-02-19T02:56:04.332Z,4.93
2018-02-19T02:57:04.309Z,4.93
2018-02-19T02:58:57.656Z,4.93
2018-02-19T02:59:57.590Z,4.77
2018-02-19T03:01:50.904Z,4.82
2018-02-19T03:02:50.906Z,4.71
2018-02-19T03:04:45.291Z,4.87
2018-02-19T03:05:45.215Z,4.77
2018-02-19T03:07:38.500Z,4.84
2018-02-19T03:08:38.523Z,4.86
2018-02-19T03:10:31.852Z,4.86
2018-02-19T03:11:31.816Z,4.73
2018-02-19T03:13:25.151Z,4.96
2018-02-19T03:14:25.154Z,4.89
2018-02-19T03:16:18.479Z,4.73
2018-02-19T03:17:18.471Z,4.84
2018-02-19T03:19:11.764Z,4.90
2018-02-19T03:20:11.746Z,5.08
2018-02-19T03:22:05.045Z,4.90
2018-02-19T03:23:05.032Z,4.73
2018-02-19T03:24:58.334Z,4.59
2018-02-19T03:25:58.328Z,4.59
2018-02-19T03:27:51.663Z,4.80
2018-02-19T03:28:51.644Z,4.78
2018-02-19T03:30:44.928Z,4.93
2018-02-19T03:31:44.923Z,4.74
2018-02-19T03:33:38.230Z,4.73
2018-02-19T03:34:38.222Z,4.77
2018-02-19T03:36:31.551Z,4.73
2018-02-19T03:37:31.529Z,4.78
2018-02-19T03:39:24.883Z,4.66
2018-02-19T03:40:24.844Z,4.82
2018-02-19T03:42:18.154Z,4.75
2018-02-19T03:43:18.133Z,4.70
2018-02-19T03:45:11.480Z,4.67
2018-02-19T03:46:11.461Z,4.77
2018-02-19T03:48:05.763Z,4.74
2018-02-19T03:49:05.754Z,4.86
2018-02-19T03:50:59.044Z,4.71
2018-02-19T03:51:59.063Z,4.73
2018-02-19T03:53:52.330Z,4.84
2018-02-19T03:54:52.408Z,4.75
2018-02-19T03:56:45.666Z,4.78
2018-02-19T03:57:45.640Z,4.80
2018-02-19T03:59:38.944Z,4.75
2018-02-19T04:00:38.925Z,4.71
2018-02-19T04:02:32.295Z,4.68
2018-02-19T04:03:32.210Z,4.71
2018-02-19T04:05:25.588Z,4.71
2018-02-19T04:06:25.548Z,4.66
2018-02-19T04:08:18.831Z,4.56
2018-02-19T04:09:18.837Z,4.53
2018-02-19T04:11:13.151Z,4.70
2018-02-19T04:12:13.128Z,4.63
2018-02-19T04:14:06.483Z,4.53
2018-02-19T04:15:06.452Z,4.52
2018-02-19T04:16:59.745Z,4.48
2018-02-19T04:17:59.719Z,4.53
2018-02-19T04:19:53.044Z,4.55
2018-02-19T04:20:53.029Z,4.59
2018-02-19T04:22:46.314Z,4.48
2018-02-19T04:23:46.322Z,4.48
2018-02-19T04:25:39.657Z,4.49
2018-02-19T04:26:39.613Z,4.53
2018-02-19T04:28:32.914Z,4.50
2018-02-19T04:29:32.973Z,4.87
2018-02-19T04:31:26.239Z,4.92
2018-02-19T04:32:26.212Z,4.94
2018-02-19T04:34:19.527Z,5.07
2018-02-19T04:35:19.532Z,5.11
2018-02-19T04:37:12.853Z,5.07
2018-02-19T04:38:12.846Z,4.92
2018-02-19T04:40:06.177Z,4.94
2018-02-19T04:41:06.123Z,4.73
2018-02-19T04:43:00.420Z,4.75
2018-02-19T04:44:00.439Z,4.71
2018-02-19T04:45:53.762Z,4.55
2018-02-19T04:46:53.739Z,4.77
2018-02-19T04:48:47.066Z,4.67
2018-02-19T04:49:47.052Z,4.63
2018-02-19T04:51:40.311Z,4.49
2018-02-19T04:52:40.320Z,4.58
2018-02-19T04:54:33.629Z,4.62
2018-02-19T04:55:33.633Z,4.84
2018-02-19T04:57:26.962Z,4.38
2018-02-19T04:58:26.889Z,4.32
2018-02-19T05:00:20.256Z,4.38
2018-02-19T05:01:20.213Z,4.40
2018-02-19T05:03:13.589Z,4.31
2018-02-19T05:04:13.519Z,4.32
2018-02-19T05:06:06.920Z,4.08
2018-02-19T05:07:06.946Z,3.96
2018-02-19T05:09:00.201Z,4.17
2018-02-19T05:10:00.178Z,4.16
2018-02-19T05:11:53.495Z,4.20
2018-02-19T05:12:53.480Z,4.35
2018-02-19T05:14:46.811Z,4.45
2018-02-19T05:15:46.744Z,4.40
2018-02-19T05:17:40.090Z,4.38
2018-02-19T05:18:40.093Z,4.55
2018-02-19T05:20:33.388Z,4.45
2018-02-19T05:21:33.349Z,4.40
2018-02-19T05:23:26.718Z,4.19
2018-02-19T05:24:26.676Z,4.35
2018-02-19T05:26:20.969Z,4.26
2018-02-19T05:27:21.037Z,4.10
2018-02-19T05:29:14.307Z,4.22
2018-02-19T05:30:14.299Z,4.30
2018-02-19T05:32:07.579Z,4.19
2018-02-19T05:33:07.594Z,4.12
2018-02-19T05:35:00.852Z,4.17
2018-02-19T05:36:00.863Z,4.13
2018-02-19T05:37:54.183Z,4.30
2018-02-19T05:38:54.213Z,4.16
2018-02-19T05:40:47.512Z,4.30
2018-02-19T05:41:47.468Z,4.05
2018-02-19T05:43:40.725Z,4.30
2018-02-19T05:44:40.833Z,4.24
2018-02-19T05:46:34.040Z,4.14
2018-02-19T05:47:34.046Z,4.19
2018-02-19T05:49:27.325Z,4.02
2018-02-19T05:50:27.330Z,4.08
2018-02-19T05:52:20.668Z,4.06
2018-02-19T05:53:20.640Z,4.17
2018-02-19T05:55:13.970Z,4.19
2018-02-19T05:56:13.933Z,4.20
2018-02-19T05:58:08.246Z,4.06
2018-02-19T05:59:08.234Z,4.10
2018-02-19T06:01:01.537Z,4.22
2018-02-19T06:02:01.506Z,4.23
2018-02-19T06:03:54.852Z,4.08
2018-02-19T06:04:54.810Z,4.26
2018-02-19T06:06:48.151Z,4.10
2018-02-19T06:07:48.124Z,4.12
2018-02-19T06:09:41.458Z,4.13
2018-02-19T06:10:41.432Z,4.06
2018-02-19T06:12:35.332Z,4.12
2018-02-19T06:13:34.693Z,4.12
2018-02-19T06:15:28.156Z,4.34
2018-02-19T06:16:28.017Z,4.19
2018-02-19T06:18:21.319Z,4.20
2018-02-19T06:19:21.317Z,4.14
2018-02-19T06:21:15.635Z,4.13
2018-02-19T06:22:15.623Z,4.14
2018-02-19T06:24:08.931Z,4.08
2018-02-19T06:25:08.883Z,4.04
2018-02-19T06:27:02.253Z,4.04
2018-02-19T06:28:02.220Z,4.08
2018-02-19T06:29:55.545Z,4.08
2018-02-19T06:30:55.535Z,4.02
2018-02-19T06:32:48.828Z,4.23
2018-02-19T06:33:48.785Z,4.26
2018-02-19T06:35:42.130Z,4.20
2018-02-19T06:36:42.115Z,4.22
2018-02-19T06:38:35.434Z,4.16
2018-02-19T06:39:35.439Z,4.05
2018-02-19T06:41:28.707Z,4.22
2018-02-19T06:42:28.706Z,4.26
2018-02-19T06:44:23.131Z,4.30
2018-02-19T06:45:23.002Z,4.20
2018-02-19T06:47:17.319Z,4.19
2018-02-19T06:48:17.306Z,4.10
2018-02-19T06:50:10.635Z,4.19
2018-02-19T06:51:10.597Z,4.17
2018-02-19T06:53:03.950Z,4.24
2018-02-19T06:54:03.903Z,4.34
2018-02-19T06:55:57.278Z,4.31
2018-02-19T06:56:57.187Z,4.10
2018-02-19T06:58:50.518Z,4.19
2018-02-19T06:59:50.505Z,4.19
2018-02-19T07:01:43.854Z,4.17
2018-02-19T07:02:43.807Z,4.14
2018-02-19T07:04:37.138Z,4.22
2018-02-19T07:05:37.100Z,4.19
2018-02-19T07:07:30.432Z,4.05
2018-02-19T07:08:30.423Z,4.06
2018-02-19T07:10:23.739Z,3.96
2018-02-19T07:11:23.699Z,4.02
2018-02-19T07:13:18.072Z,3.96
2018-02-19T07:14:18.025Z,3.99
2018-02-19T07:16:11.321Z,4.06
2018-02-19T07:17:11.329Z,3.95
2018-02-19T07:19:04.664Z,4.01
2018-02-19T07:20:04.612Z,4.20
2018-02-19T07:21:57.942Z,4.05
2018-02-19T07:22:57.914Z,4.02
2018-02-19T07:24:51.256Z,4.10
2018-02-19T07:25:51.250Z,3.98
2018-02-19T07:27:44.554Z,4.13
2018-02-19T07:28:44.533Z,4.23
2018-02-19T07:30:37.935Z,4.16
2018-02-19T07:31:37.823Z,4.10
2018-02-19T07:33:31.157Z,4.17
2018-02-19T07:34:31.129Z,4.26
2018-02-19T07:36:24.494Z,4.26
2018-02-19T07:37:24.420Z,4.40
2018-02-19T07:39:17.764Z,4.34
2018-02-19T07:40:17.731Z,4.49
2018-02-19T07:42:11.067Z,4.59
2018-02-19T07:43:11.027Z,4.42
2018-02-19T07:45:04.348Z,4.38
2018-02-19T07:46:04.336Z,4.42
2018-02-19T07:47:57.669Z,4.34
2018-02-19T07:48:57.629Z,4.41
2018-02-19T07:50:51.059Z,4.35
2018-02-19T07:51:50.933Z,4.49
2018-02-19T07:53:44.267Z,4.41
2018-02-19T07:54:44.224Z,4.40
2018-02-19T07:56:37.565Z,4.49
2018-02-19T07:57:37.551Z,4.40
2018-02-19T07:59:30.882Z,4.42
2018-02-19T08:00:30.833Z,4.41
2018-02-19T08:02:24.167Z,4.44
2018-02-19T08:03:24.132Z,4.52
2018-02-19T08:05:17.481Z,4.70
2018-02-19T08:06:17.417Z,4.56
2018-02-19T08:08:10.760Z,4.82
2018-02-19T08:09:10.732Z,4.71
2018-02-19T08:11:04.162Z,4.35
2018-02-19T08:12:04.025Z,4.42
2018-02-19T08:13:57.334Z,4.52
2018-02-19T08:14:57.313Z,4.45
2018-02-19T08:16:50.670Z,4.42
2018-02-19T08:17:50.634Z,4.45
2018-02-19T08:19:43.957Z,4.44
2018-02-19T08:20:43.923Z,4.44
2018-02-19T08:22:37.289Z,4.60
2018-02-19T08:23:37.243Z,4.58
2018-02-19T08:25:30.599Z,4.58
2018-02-19T08:26:30.544Z,4.70
2018-02-19T08:28:23.888Z,4.80
2018-02-19T08:29:23.836Z,4.59
2018-02-19T08:31:17.176Z,4.70
2018-02-19T08:32:17.153Z,4.68
2018-02-19T08:34:11.473Z,4.70
2018-02-19T08:35:11.435Z,4.75
2018-02-19T08:37:04.758Z,4.86
2018-02-19T08:38:04.738Z,4.78
2018-02-19T08:39:58.085Z,4.78
2018-02-19T08:40:58.074Z,4.80
2018-02-19T08:42:51.367Z,4.84
2018-02-19T08:43:51.333Z,4.97
2018-02-19T08:45:44.668Z,4.77
2018-02-19T08:46:44.639Z,4.84
2018-02-19T08:48:38.988Z,4.89
2018-02-19T08:49:38.932Z,4.97
2018-02-19T08:51:32.282Z,4.99
2018-02-19T08:52:32.243Z,4.87
2018-02-19T08:54:26.570Z,4.77
2018-02-19T08:55:26.539Z,4.84
2018-02-19T08:57:19.890Z,4.75
2018-02-19T08:58:19.839Z,4.94
2018-02-19T09:00:14.145Z,4.82
2018-02-19T09:01:14.154Z,4.90
2018-02-19T09:03:07.457Z,4.92
2018-02-19T09:04:07.424Z,5.15
2018-02-19T09:06:00.758Z,4.92
2018-02-19T09:07:00.715Z,5.11
2018-02-19T09:08:54.060Z,5.32
2018-02-19T09:09:54.016Z,5.04
2018-02-19T09:11:47.353Z,4.92
2018-02-19T09:12:47.326Z,4.94
2018-02-19T09:14:41.658Z,4.93
2018-02-19T09:15:41.608Z,5.00
2018-02-19T09:17:34.963Z,5.18
2018-02-19T09:18:34.923Z,5.21
2018-02-19T09:20:28.282Z,5.33
2018-02-19T09:21:28.239Z,5.39
2018-02-19T09:23:21.550Z,5.29
2018-02-19T09:24:21.549Z,5.17
2018-02-19T09:26:14.871Z,5.20
2018-02-19T09:27:14.854Z,5.07
2018-02-19T09:29:08.154Z,4.96
2018-02-19T09:30:08.131Z,4.99
2018-02-19T09:32:01.472Z,5.36
2018-02-19T09:33:01.418Z,5.32
2018-02-19T09:34:54.770Z,5.14
2018-02-19T09:35:54.727Z,5.14
2018-02-19T09:37:48.067Z,5.17
2018-02-19T09:38:48.030Z,5.30
2018-02-19T09:40:41.345Z,5.36
2018-02-19T09:41:41.334Z,5.30
2018-02-19T09:43:34.735Z,5.25
2018-02-19T09:44:34.633Z,5.20
2018-02-19T09:46:27.969Z,5.11
2018-02-19T09:47:27.938Z,5.15
2018-02-19T09:49:21.289Z,5.44
2018-02-19T09:50:21.241Z,5.38
2018-02-19T09:52:14.566Z,5.39
2018-02-19T09:53:14.538Z,5.41
2018-02-19T09:55:07.877Z,5.44
2018-02-19T09:56:07.833Z,5.44
2018-02-19T09:58:01.155Z,5.51
2018-02-19T09:59:01.154Z,5.53
2018-02-19T10:00:54.484Z,5.46
2018-02-19T10:01:54.461Z,5.44
2018-02-19T10:03:47.759Z,5.39
2018-02-19T10:04:47.753Z,5.47
2018-02-19T10:06:41.087Z,5.50
2018-02-19T10:07:41.062Z,5.50
2018-02-19T10:09:34.361Z,5.50
2018-02-19T10:10:34.342Z,5.64
2018-02-19T10:12:27.692Z,5.68
2018-02-19T10:13:27.638Z,5.68
2018-02-19T10:15:20.966Z,5.73
2018-02-19T10:16:20.945Z,5.80
2018-02-19T10:18:14.301Z,5.80
2018-02-19T10:19:14.278Z,5.84
2018-02-19T10:21:07.576Z,5.83
2018-02-19T10:22:07.573Z,5.90
2018-02-19T10:24:00.912Z,5.73
2018-02-19T10:25:00.864Z,5.97
2018-02-19T10:26:54.201Z,5.86
2018-02-19T10:27:54.175Z,5.66
2018-02-19T10:29:47.517Z,5.84
2018-02-19T10:30:47.472Z,5.82
2018-02-19T10:32:40.786Z,5.97
2018-02-19T10:33:40.765Z,6.07
2018-02-19T10:35:34.104Z,6.22
2018-02-19T10:36:34.078Z,6.14
2018-02-19T10:38:27.412Z,6.05
2018-02-19T10:39:27.356Z,6.02
2018-02-19T10:41:20.707Z,6.08
2018-02-19T10:42:20.663Z,6.17
2018-02-19T10:44:13.992Z,6.16
2018-02-19T10:45:13.963Z,5.99
2018-02-19T10:47:08.300Z,6.07
2018-02-19T10:48:08.244Z,6.01
2018-02-19T10:50:01.574Z,5.99
2018-02-19T10:51:01.571Z,6.08
2018-02-19T10:52:54.900Z,6.05
2018-02-19T10:53:54.860Z,5.91
2018-02-19T10:55:48.197Z,6.02
2018-02-19T10:56:48.156Z,6.12
2018-02-19T10:58:41.502Z,6.07
2018-02-19T10:59:41.492Z,6.08
2018-02-19T11:01:34.798Z,5.79
2018-02-19T11:02:34.778Z,5.80
2018-02-19T11:04:28.131Z,5.98
2018-02-19T11:05:28.064Z,6.01
2018-02-19T11:07:21.383Z,6.12
2018-02-19T11:08:21.378Z,6.11
2018-02-19T11:10:14.722Z,6.07
2018-02-19T11:11:14.676Z,6.08
2018-02-19T11:13:07.982Z,6.11
2018-02-19T11:14:07.978Z,6.16
2018-02-19T11:16:01.299Z,5.94
2018-02-19T11:17:01.274Z,5.91
2018-02-19T11:18:54.608Z,5.94
2018-02-19T11:19:54.573Z,5.99
2018-02-19T11:21:47.930Z,6.05
2018-02-19T11:22:47.881Z,6.28
2018-02-19T11:24:41.228Z,6.26
2018-02-19T11:25:41.196Z,6.12
2018-02-19T11:27:34.543Z,6.07
2018-02-19T11:28:34.511Z,6.04
2018-02-19T11:30:27.821Z,6.01
2018-02-19T11:31:27.812Z,6.11
2018-02-19T11:33:21.179Z,5.91
2018-02-19T11:34:21.119Z,6.04
2018-02-19T11:36:14.471Z,6.01
2018-02-19T11:37:14.451Z,6.02
2018-02-19T11:39:07.776Z,6.12
2018-02-19T11:40:07.744Z,6.02
2018-02-19T11:42:01.062Z,5.94
2018-02-19T11:43:01.036Z,6.07
2018-02-19T11:44:54.372Z,6.28
2018-02-19T11:45:54.346Z,6.26
2018-02-19T11:47:47.672Z,6.07
2018-02-19T11:48:47.641Z,6.11
2018-02-19T11:50:40.966Z,6.11
2018-02-19T11:51:40.959Z,5.94
2018-02-19T11:53:34.264Z,6.12
2018-02-19T11:54:34.253Z,6.14
2018-02-19T11:56:27.608Z,6.04
2018-02-19T11:57:27.551Z,5.94
2018-02-19T11:59:20.879Z,6.02
2018-02-19T12:00:20.868Z,6.04
2018-02-19T12:02:14.210Z,6.08
2018-02-19T12:03:14.155Z,5.89
2018-02-19T12:05:07.468Z,6.11
2018-02-19T12:06:07.542Z,6.42
2018-02-19T12:08:00.813Z,6.11
2018-02-19T12:09:00.797Z,6.14
2018-02-19T12:10:54.093Z,6.30
2018-02-19T12:11:54.063Z,6.27
2018-02-19T12:13:48.422Z,6.07
2018-02-19T12:14:48.367Z,6.17
2018-02-19T12:16:41.712Z,6.19
2018-02-19T12:17:41.690Z,6.19
2018-02-19T12:19:35.043Z,6.27
2018-02-19T12:20:34.975Z,6.14
2018-02-19T12:22:28.309Z,6.16
2018-02-19T12:23:28.283Z,6.05
2018-02-19T12:25:21.624Z,6.09
2018-02-19T12:26:21.579Z,6.12
2018-02-19T12:28:14.908Z,6.09
2018-02-19T12:29:14.873Z,6.02
2018-02-19T12:31:08.229Z,6.09
2018-02-19T12:32:08.198Z,6.05
2018-02-19T12:34:01.506Z,5.84
2018-02-19T12:35:01.493Z,6.02
2018-02-19T12:36:54.836Z,6.01
2018-02-19T12:37:54.816Z,5.91
2018-02-19T12:39:48.123Z,5.91
2018-02-19T12:40:48.102Z,5.94
2018-02-19T12:42:41.457Z,6.08
2018-02-19T12:43:41.400Z,6.04
2018-02-19T12:45:34.749Z,6.02
2018-02-19T12:46:34.715Z,6.16
2018-02-19T12:48:28.082Z,6.02
2018-02-19T12:49:28.020Z,5.94
2018-02-19T12:51:21.351Z,5.99
2018-02-19T12:52:21.328Z,5.97
2018-02-19T12:54:14.659Z,6.04
2018-02-19T12:55:14.617Z,6.11
2018-02-19T12:57:07.956Z,6.07
2018-02-19T12:58:07.932Z,6.08
2018-02-19T13:00:01.265Z,6.05
2018-02-19T13:01:01.273Z,6.12
2018-02-19T13:02:54.548Z,6.17
2018-02-19T13:03:54.531Z,6.09
2018-02-19T13:05:47.875Z,6.16
2018-02-19T13:06:47.847Z,6.07
2018-02-19T13:08:41.169Z,6.12
2018-02-19T13:09:41.142Z,6.20
2018-02-19T13:11:34.495Z,6.49
2018-02-19T13:12:34.464Z,6.31
2018-02-19T13:14:27.782Z,6.17
2018-02-19T13:15:27.760Z,6.28
2018-02-19T13:17:21.196Z,6.24
2018-02-19T13:18:21.044Z,6.09
2018-02-19T13:20:14.388Z,6.12
2018-02-19T13:21:14.426Z,6.09
2018-02-19T13:23:07.697Z,6.12
2018-02-19T13:24:07.642Z,6.09
2018-02-19T13:26:01.585Z,6.20
2018-02-19T13:27:00.951Z,6.30
2018-02-19T13:28:54.292Z,6.26
2018-02-19T13:29:54.288Z,6.31
2018-02-19T13:31:47.587Z,6.26
2018-02-19T13:32:47.581Z,6.24
2018-02-19T13:34:41.899Z,6.26
2018-02-19T13:35:41.866Z,6.24
2018-02-19T13:37:35.192Z,6.20
2018-02-19T13:38:35.201Z,6.12
2018-02-19T13:40:28.527Z,5.93
2018-02-19T13:41:28.471Z,5.99
2018-02-19T13:43:21.803Z,5.75
2018-02-19T13:44:21.789Z,5.76
2018-02-19T13:46:15.114Z,5.87
2018-02-19T13:47:15.086Z,5.79
2018-02-19T13:49:08.404Z,5.73
2018-02-19T13:50:08.387Z,5.91
2018-02-19T13:52:01.876Z,5.99
2018-02-19T13:53:01.675Z,5.97
2018-02-19T13:54:55.006Z,5.93
2018-02-19T13:55:54.980Z,5.97
2018-02-19T13:57:48.314Z,5.82
2018-02-19T13:58:48.276Z,5.87
2018-02-19T14:00:41.698Z,5.79
2018-02-19T14:01:41.584Z,5.86
2018-02-19T14:03:34.928Z,5.90
2018-02-19T14:04:34.894Z,5.73
2018-02-19T14:06:29.217Z,5.62
2018-02-19T14:07:29.184Z,5.54
2018-02-19T14:09:22.533Z,5.51
2018-02-19T14:10:22.500Z,5.64
2018-02-19T14:12:15.837Z,5.46
2018-02-19T14:13:15.810Z,5.57
2018-02-19T14:15:09.174Z,5.61
2018-02-19T14:16:09.099Z,5.53
2018-02-19T14:18:02.446Z,5.69
2018-02-19T14:19:02.402Z,5.80
2018-02-19T14:20:55.762Z,5.83
2018-02-19T14:21:55.711Z,5.68
2018-02-19T14:23:49.036Z,5.66
2018-02-19T14:24:49.007Z,5.51
2018-02-19T14:26:42.385Z,5.44
2018-02-19T14:27:42.317Z,5.51
2018-02-19T14:29:35.697Z,5.51
2018-02-19T14:30:35.622Z,5.51
2018-02-19T14:32:29.976Z,5.57
2018-02-19T14:33:29.926Z,5.53
2018-02-19T14:35:23.260Z,5.73
2018-02-19T14:36:23.242Z,5.62
2018-02-19T14:38:16.581Z,5.69
2018-02-19T14:39:16.555Z,5.50
2018-02-19T14:41:09.867Z,5.48
2018-02-19T14:42:09.831Z,5.36
2018-02-19T14:44:04.187Z,5.21
2018-02-19T14:45:04.147Z,5.29
2018-02-19T14:46:57.461Z,5.38
2018-02-19T14:47:57.430Z,5.56
2018-02-19T14:49:50.768Z,5.44
2018-02-19T14:50:50.728Z,5.50
2018-02-19T14:52:44.076Z,5.43
2018-02-19T14:53:44.049Z,5.36
2018-02-19T14:55:37.387Z,5.29
2018-02-19T14:56:37.346Z,5.26
2018-02-19T14:58:30.701Z,5.41
2018-02-19T14:59:30.652Z,5.43
2018-02-19T15:01:24.035Z,5.41
2018-02-19T15:02:23.958Z,5.44
2018-02-19T15:04:17.305Z,5.33
2018-02-19T15:05:17.266Z,5.32
2018-02-19T15:07:10.614Z,5.25
2018-02-19T15:08:10.551Z,5.32
2018-02-19T15:10:03.879Z,5.35
2018-02-19T15:11:03.865Z,5.43
2018-02-19T15:12:58.218Z,5.38
2018-02-19T15:13:58.204Z,5.36
2018-02-19T15:15:51.505Z,5.36
2018-02-19T15:16:51.474Z,5.38
2018-02-19T15:18:44.794Z,5.47
2018-02-19T15:19:44.770Z,5.33
2018-02-19T15:21:38.107Z,5.21
2018-02-19T15:22:38.105Z,5.35
2018-02-19T15:24:31.410Z,5.36
2018-02-19T15:25:31.376Z,5.33
2018-02-19T15:27:24.690Z,5.30
2018-02-19T15:28:24.679Z,5.28
2018-02-19T15:30:18.009Z,5.18
2018-02-19T15:31:18.024Z,5.12
2018-02-19T15:33:11.300Z,5.29
2018-02-19T15:34:11.259Z,5.20
2018-02-19T15:36:04.613Z,5.26
2018-02-19T15:37:04.577Z,5.15
2018-02-19T15:38:57.905Z,5.25
2018-02-19T15:39:57.897Z,5.32
2018-02-19T15:41:51.236Z,5.33
2018-02-19T15:42:51.188Z,5.21
2018-02-19T15:44:44.532Z,5.08
2018-02-19T15:45:44.498Z,5.12
2018-02-19T15:47:37.840Z,5.18
2018-02-19T15:48:37.793Z,5.15
2018-02-19T15:50:31.127Z,4.99
2018-02-19T15:51:31.121Z,4.99
2018-02-19T15:53:24.446Z,5.15
2018-02-19T15:54:24.414Z,5.08
2018-02-19T15:56:17.749Z,5.12
2018-02-19T15:57:17.710Z,5.28
2018-02-19T15:59:11.069Z,5.25
2018-02-19T16:00:11.016Z,5.08
2018-02-19T16:02:04.352Z,5.21
2018-02-19T16:03:04.333Z,5.23
2018-02-19T16:04:57.665Z,5.18
2018-02-19T16:05:57.635Z,5.25
2018-02-19T16:07:50.951Z,5.17
2018-02-19T16:08:50.916Z,5.15
2018-02-19T16:10:44.266Z,5.21
2018-02-19T16:11:44.221Z,5.10
2018-02-19T16:13:37.547Z,5.29
2018-02-19T16:14:37.527Z,5.43
2018-02-19T16:16:30.870Z,5.17
2018-02-19T16:17:30.828Z,5.10
2018-02-19T16:19:24.164Z,5.08
2018-02-19T16:20:24.133Z,5.17
2018-02-19T16:22:17.481Z,5.23
2018-02-19T16:23:17.448Z,5.07
2018-02-19T16:25:11.380Z,4.93
2018-02-19T16:26:10.768Z,5.08
2018-02-19T16:28:04.078Z,4.99
2018-02-19T16:29:04.048Z,5.04
2018-02-19T16:30:57.372Z,5.17
2018-02-19T16:31:57.365Z,5.25
2018-02-19T16:33:50.714Z,5.18
2018-02-19T16:34:50.677Z,5.17
2018-02-19T16:36:44.025Z,5.15
2018-02-19T16:37:43.955Z,5.28
2018-02-19T16:39:37.307Z,5.12
2018-02-19T16:40:37.294Z,4.99
2018-02-19T16:42:30.646Z,4.90
2018-02-19T16:43:30.586Z,4.90
2018-02-19T16:45:23.942Z,4.90
2018-02-19T16:46:23.907Z,4.92
2018-02-19T16:48:17.227Z,4.90
2018-02-19T16:49:17.227Z,4.77
2018-02-19T16:51:10.600Z,4.90
2018-02-19T16:52:10.556Z,4.90
2018-02-19T16:54:03.862Z,4.90
2018-02-19T16:55:03.825Z,4.82
2018-02-19T16:56:57.131Z,4.82
2018-02-19T16:57:57.138Z,4.86
2018-02-19T16:59:50.507Z,4.92
2018-02-19T17:00:50.433Z,4.74
2018-02-19T17:02:43.767Z,4.73
2018-02-19T17:03:43.723Z,4.78
2018-02-19T17:05:37.014Z,4.86
2018-02-19T17:06:37.013Z,4.92
2018-02-19T17:08:30.329Z,4.87
2018-02-19T17:09:30.319Z,4.84
2018-02-19T17:11:23.637Z,4.77
2018-02-19T17:12:23.624Z,4.70
2018-02-19T17:14:16.960Z,4.75
2018-02-19T17:15:16.924Z,4.78
2018-02-19T17:17:10.224Z,4.75
2018-02-19T17:18:10.211Z,4.87
2018-02-19T17:20:03.566Z,4.80
2018-02-19T17:21:03.483Z,4.71
2018-02-19T17:22:56.850Z,4.89
2018-02-19T17:23:56.797Z,4.84
2018-02-19T17:25:49.658Z,4.56
2018-02-19T17:26:49.618Z,4.63
2018-02-19T17:28:42.934Z,4.73
2018-02-19T17:29:42.897Z,4.77
2018-02-19T17:31:36.233Z,4.74
2018-02-19T17:32:36.196Z,4.74
2018-02-19T17:34:29.066Z,4.56
2018-02-19T17:35:29.014Z,4.59
2018-02-19T17:37:22.390Z,4.53
2018-02-19T17:38:22.302Z,4.58
2018-02-19T17:40:15.621Z,4.80
2018-02-19T17:41:15.619Z,4.71
2018-02-19T17:43:08.955Z,4.90
2018-02-19T17:44:08.877Z,4.93
2018-02-19T17:46:02.258Z,4.90
2018-02-19T17:47:02.179Z,4.75
2018-02-19T17:48:55.575Z,4.74
2018-02-19T17:49:55.500Z,4.63
2018-02-19T17:51:48.796Z,4.62
2018-02-19T17:52:48.816Z,4.62
2018-02-19T17:54:42.126Z,4.53
2018-02-19T17:55:42.104Z,4.59
2018-02-19T17:57:35.522Z,4.42
2018-02-19T17:58:35.457Z,4.49
2018-02-19T18:00:28.795Z,4.32
2018-02-19T18:01:28.752Z,4.41
2018-02-19T18:03:22.077Z,4.58
2018-02-19T18:04:22.050Z,4.50
2018-02-19T18:06:14.940Z,4.50
2018-02-19T18:07:14.848Z,4.73
2018-02-19T18:09:08.187Z,4.60
2018-02-19T18:10:08.184Z,4.53
2018-02-19T18:12:01.504Z,4.59
2018-02-19T18:13:01.436Z,4.59
2018-02-19T18:14:54.775Z,4.78
2018-02-19T18:15:54.763Z,4.63
2018-02-19T18:17:48.105Z,4.45
2018-02-19T18:18:48.063Z,4.55
2018-02-19T18:20:41.375Z,4.48
2018-02-19T18:21:41.329Z,4.26
2018-02-19T18:23:34.815Z,4.63
2018-02-19T18:24:34.676Z,4.50
2018-02-19T18:26:28.112Z,4.49
2018-02-19T18:27:27.946Z,4.56
2018-02-19T18:29:21.265Z,4.58
2018-02-19T18:30:21.295Z,4.55
2018-02-19T18:32:14.161Z,4.34
2018-02-19T18:33:14.083Z,4.48
2018-02-19T18:35:07.454Z,4.42
2018-02-19T18:36:07.387Z,4.34
2018-02-19T18:38:00.734Z,4.37
2018-02-19T18:39:00.699Z,4.17
2018-02-19T18:40:55.058Z,4.45
2018-02-19T18:41:54.971Z,4.42
2018-02-19T18:43:48.341Z,4.34
2018-02-19T18:44:48.303Z,4.34
2018-02-19T18:46:41.120Z,4.45
2018-02-19T18:47:41.107Z,4.38
2018-02-19T18:49:34.506Z,4.44
2018-02-19T18:50:34.401Z,4.37
2018-02-19T18:52:27.709Z,4.41
2018-02-19T18:53:27.673Z,4.44
2018-02-19T18:55:20.996Z,4.44
2018-02-19T18:56:20.966Z,4.35
2018-02-19T18:58:14.323Z,4.41
2018-02-19T18:59:14.272Z,4.53
2018-02-19T19:01:07.591Z,4.38
2018-02-19T19:02:07.563Z,4.37
2018-02-19T19:04:00.890Z,4.49
2018-02-19T19:05:00.865Z,4.50
2018-02-19T19:06:54.195Z,4.48
2018-02-19T19:07:54.223Z,4.53
2018-02-19T19:09:47.514Z,4.44
2018-02-19T19:10:47.468Z,4.60
2018-02-19T19:12:40.789Z,4.50
2018-02-19T19:13:40.767Z,4.45